sensor_id;sensor_type;location;lat;lon;timestamp;P1;durP1;ratioP1;P2;durP2;ratioP2
70247;SDS011;57641;51.416;5.506;2023-01-01T00:02:12;12.18;;;5.72;;
70247;SDS011;57641;51.416;5.506;2023-01-01T00:04:38;14.52;;;5.68;;
70247;SDS011;57641;51.416;5.506;2023-01-01T00:07:03;9.63;;;4.00;;
70247;SDS011;57641;51.416;5.506;2023-01-01T00:09:28;10.60;;;4.05;;
70247;SDS011;57641;51.416;5.506;2023-01-01T00:12:13;11.57;;;4.03;;
70247;SDS011;57641;51.416;5.506;2023-01-01T00:14:38;9.77;;;3.95;;
70247;SDS011;57641;51.416;5.506;2023-01-01T00:17:06;7.45;;;3.40;;
70247;SDS011;57641;51.416;5.506;2023-01-01T00:19:32;7.63;;;3.80;;
70247;SDS011;57641;51.416;5.506;2023-01-01T00:21:58;10.35;;;3.90;;
70247;SDS011;57641;51.416;5.506;2023-01-01T00:24:23;10.40;;;3.55;;
70247;SDS011;57641;51.416;5.506;2023-01-01T00:26:49;12.32;;;3.40;;
70247;SDS011;57641;51.416;5.506;2023-01-01T00:29:14;7.05;;;2.67;;
70247;SDS011;57641;51.416;5.506;2023-01-01T00:31:39;6.80;;;3.05;;
70247;SDS011;57641;51.416;5.506;2023-01-01T00:34:05;6.28;;;2.40;;
70247;SDS011;57641;51.416;5.506;2023-01-01T00:36:30;8.15;;;3.08;;
70247;SDS011;57641;51.416;5.506;2023-01-01T00:38:56;8.57;;;2.60;;
70247;SDS011;57641;51.416;5.506;2023-01-01T00:41:21;8.70;;;2.75;;
70247;SDS011;57641;51.416;5.506;2023-01-01T00:43:47;5.53;;;2.35;;
70247;SDS011;57641;51.416;5.506;2023-01-01T00:46:12;10.02;;;2.42;;
70247;SDS011;57641;51.416;5.506;2023-01-01T00:48:38;7.75;;;2.45;;
70247;SDS011;57641;51.416;5.506;2023-01-01T00:51:04;7.88;;;2.90;;
70247;SDS011;57641;51.416;5.506;2023-01-01T00:53:30;5.25;;;2.58;;
70247;SDS011;57641;51.416;5.506;2023-01-01T00:55:56;5.18;;;2.15;;
70247;SDS011;57641;51.416;5.506;2023-01-01T00:58:22;11.90;;;2.72;;
70247;SDS011;57641;51.416;5.506;2023-01-01T01:00:49;7.18;;;2.63;;
70247;SDS011;57641;51.416;5.506;2023-01-01T01:03:15;7.32;;;2.47;;
70247;SDS011;57641;51.416;5.506;2023-01-01T01:08:37;7.03;;;2.80;;
70247;SDS011;57641;51.416;5.506;2023-01-01T01:13:30;5.60;;;2.30;;
70247;SDS011;57641;51.416;5.506;2023-01-01T01:15:56;7.95;;;1.98;;
70247;SDS011;57641;51.416;5.506;2023-01-01T01:18:21;6.82;;;2.17;;
70247;SDS011;57641;51.416;5.506;2023-01-01T01:20:51;7.53;;;2.70;;
70247;SDS011;57641;51.416;5.506;2023-01-01T01:23:17;4.57;;;2.08;;
70247;SDS011;57641;51.416;5.506;2023-01-01T01:25:44;6.65;;;2.38;;
70247;SDS011;57641;51.416;5.506;2023-01-01T01:28:10;6.78;;;2.20;;
70247;SDS011;57641;51.416;5.506;2023-01-01T01:30:36;7.68;;;2.35;;
70247;SDS011;57641;51.416;5.506;2023-01-01T01:33:03;5.63;;;2.10;;
70247;SDS011;57641;51.416;5.506;2023-01-01T01:35:29;7.07;;;2.30;;
70247;SDS011;57641;51.416;5.506;2023-01-01T01:37:55;4.32;;;2.05;;
70247;SDS011;57641;51.416;5.506;2023-01-01T01:40:20;10.35;;;2.67;;
70247;SDS011;57641;51.416;5.506;2023-01-01T01:42:46;5.82;;;2.25;;
70247;SDS011;57641;51.416;5.506;2023-01-01T01:45:14;5.90;;;1.75;;
70247;SDS011;57641;51.416;5.506;2023-01-01T01:47:45;8.63;;;4.90;;
70247;SDS011;57641;51.416;5.506;2023-01-01T01:50:13;5.40;;;2.08;;
70247;SDS011;57641;51.416;5.506;2023-01-01T01:52:57;8.82;;;2.20;;
70247;SDS011;57641;51.416;5.506;2023-01-01T01:55:31;5.97;;;2.00;;
70247;SDS011;57641;51.416;5.506;2023-01-01T01:58:01;5.68;;;2.10;;
70247;SDS011;57641;51.416;5.506;2023-01-01T02:00:27;7.20;;;2.47;;
70247;SDS011;57641;51.416;5.506;2023-01-01T02:05:43;5.93;;;2.35;;
70247;SDS011;57641;51.416;5.506;2023-01-01T02:08:09;5.63;;;2.28;;
70247;SDS011;57641;51.416;5.506;2023-01-01T02:10:38;6.70;;;2.05;;
70247;SDS011;57641;51.416;5.506;2023-01-01T02:13:04;8.65;;;2.30;;
70247;SDS011;57641;51.416;5.506;2023-01-01T02:15:32;7.40;;;2.28;;
70247;SDS011;57641;51.416;5.506;2023-01-01T02:18:02;8.52;;;2.05;;
70247;SDS011;57641;51.416;5.506;2023-01-01T02:28:47;4.75;;;1.50;;
70247;SDS011;57641;51.416;5.506;2023-01-01T02:31:14;5.38;;;1.92;;
70247;SDS011;57641;51.416;5.506;2023-01-01T02:33:44;5.93;;;1.77;;
70247;SDS011;57641;51.416;5.506;2023-01-01T02:36:11;6.97;;;1.92;;
70247;SDS011;57641;51.416;5.506;2023-01-01T02:38:45;4.10;;;1.65;;
70247;SDS011;57641;51.416;5.506;2023-01-01T02:41:18;8.50;;;2.13;;
70247;SDS011;57641;51.416;5.506;2023-01-01T02:43:48;4.28;;;1.60;;
70247;SDS011;57641;51.416;5.506;2023-01-01T02:46:13;5.45;;;2.00;;
70247;SDS011;57641;51.416;5.506;2023-01-01T02:51:15;7.53;;;1.98;;
70247;SDS011;57641;51.416;5.506;2023-01-01T02:56:43;4.38;;;1.45;;
70247;SDS011;57641;51.416;5.506;2023-01-01T03:02:22;3.92;;;1.40;;
70247;SDS011;57641;51.416;5.506;2023-01-01T03:13:28;5.15;;;1.98;;
70247;SDS011;57641;51.416;5.506;2023-01-01T03:15:58;3.20;;;1.52;;
70247;SDS011;57641;51.416;5.506;2023-01-01T03:18:32;3.83;;;1.95;;
70247;SDS011;57641;51.416;5.506;2023-01-01T03:21:05;3.13;;;1.95;;
70247;SDS011;57641;51.416;5.506;2023-01-01T03:23:34;6.57;;;1.63;;
70247;SDS011;57641;51.416;5.506;2023-01-01T03:26:06;5.80;;;1.58;;
70247;SDS011;57641;51.416;5.506;2023-01-01T03:28:56;6.10;;;1.92;;
70247;SDS011;57641;51.416;5.506;2023-01-01T03:31:23;4.65;;;1.80;;
70247;SDS011;57641;51.416;5.506;2023-01-01T03:33:52;3.90;;;1.40;;
70247;SDS011;57641;51.416;5.506;2023-01-01T03:36:26;2.38;;;1.10;;
70247;SDS011;57641;51.416;5.506;2023-01-01T03:38:59;3.97;;;1.60;;
70247;SDS011;57641;51.416;5.506;2023-01-01T03:44:26;6.45;;;1.83;;
70247;SDS011;57641;51.416;5.506;2023-01-01T03:46:53;7.28;;;1.80;;
70247;SDS011;57641;51.416;5.506;2023-01-01T03:49:19;4.18;;;1.65;;
70247;SDS011;57641;51.416;5.506;2023-01-01T03:52:10;4.68;;;1.83;;
70247;SDS011;57641;51.416;5.506;2023-01-01T04:00:20;4.60;;;1.35;;
70247;SDS011;57641;51.416;5.506;2023-01-01T04:02:59;4.65;;;1.60;;
70247;SDS011;57641;51.416;5.506;2023-01-01T04:05:28;6.10;;;1.50;;
70247;SDS011;57641;51.416;5.506;2023-01-01T04:07:55;5.15;;;1.23;;
70247;SDS011;57641;51.416;5.506;2023-01-01T04:10:24;4.13;;;1.75;;
70247;SDS011;57641;51.416;5.506;2023-01-01T04:12:54;4.20;;;1.35;;
70247;SDS011;57641;51.416;5.506;2023-01-01T04:15:25;4.03;;;1.52;;
70247;SDS011;57641;51.416;5.506;2023-01-01T04:17:57;4.15;;;1.40;;
70247;SDS011;57641;51.416;5.506;2023-01-01T04:20:23;3.88;;;1.63;;
70247;SDS011;57641;51.416;5.506;2023-01-01T04:22:49;5.85;;;1.55;;
70247;SDS011;57641;51.416;5.506;2023-01-01T04:25:15;3.88;;;1.40;;
70247;SDS011;57641;51.416;5.506;2023-01-01T04:27:41;4.15;;;1.45;;
70247;SDS011;57641;51.416;5.506;2023-01-01T04:30:08;4.88;;;1.73;;
70247;SDS011;57641;51.416;5.506;2023-01-01T04:32:36;6.75;;;1.80;;
70247;SDS011;57641;51.416;5.506;2023-01-01T04:35:02;6.65;;;1.63;;
70247;SDS011;57641;51.416;5.506;2023-01-01T04:37:28;3.28;;;1.55;;
70247;SDS011;57641;51.416;5.506;2023-01-01T04:39:54;8.77;;;1.95;;
70247;SDS011;57641;51.416;5.506;2023-01-01T04:42:19;4.80;;;1.77;;
70247;SDS011;57641;51.416;5.506;2023-01-01T04:44:45;5.43;;;1.60;;
70247;SDS011;57641;51.416;5.506;2023-01-01T04:47:10;5.57;;;1.60;;
70247;SDS011;57641;51.416;5.506;2023-01-01T04:49:36;9.00;;;1.77;;
70247;SDS011;57641;51.416;5.506;2023-01-01T04:52:02;3.75;;;1.38;;
70247;SDS011;57641;51.416;5.506;2023-01-01T04:54:28;4.78;;;1.40;;
70247;SDS011;57641;51.416;5.506;2023-01-01T04:57:05;6.20;;;1.85;;
70247;SDS011;57641;51.416;5.506;2023-01-01T04:59:31;4.93;;;1.80;;
70247;SDS011;57641;51.416;5.506;2023-01-01T05:01:56;6.07;;;1.50;;
70247;SDS011;57641;51.416;5.506;2023-01-01T05:04:22;4.13;;;1.83;;
70247;SDS011;57641;51.416;5.506;2023-01-01T05:06:48;4.95;;;1.60;;
70247;SDS011;57641;51.416;5.506;2023-01-01T05:09:13;7.80;;;1.83;;
70247;SDS011;57641;51.416;5.506;2023-01-01T05:11:38;7.53;;;1.67;;
70247;SDS011;57641;51.416;5.506;2023-01-01T05:14:04;6.80;;;1.83;;
70247;SDS011;57641;51.416;5.506;2023-01-01T05:16:32;3.70;;;1.70;;
70247;SDS011;57641;51.416;5.506;2023-01-01T05:19:00;3.47;;;1.52;;
70247;SDS011;57641;51.416;5.506;2023-01-01T05:21:31;6.53;;;1.92;;
70247;SDS011;57641;51.416;5.506;2023-01-01T05:23:59;5.22;;;1.95;;
70247;SDS011;57641;51.416;5.506;2023-01-01T05:26:27;3.38;;;1.63;;
70247;SDS011;57641;51.416;5.506;2023-01-01T05:28:57;6.75;;;1.80;;
70247;SDS011;57641;51.416;5.506;2023-01-01T05:31:25;5.47;;;1.65;;
70247;SDS011;57641;51.416;5.506;2023-01-01T05:33:52;4.15;;;1.65;;
70247;SDS011;57641;51.416;5.506;2023-01-01T05:36:20;4.25;;;2.00;;
70247;SDS011;57641;51.416;5.506;2023-01-01T05:38:47;5.25;;;1.92;;
70247;SDS011;57641;51.416;5.506;2023-01-01T05:41:14;10.05;;;2.13;;
70247;SDS011;57641;51.416;5.506;2023-01-01T05:43:41;4.93;;;1.98;;
70247;SDS011;57641;51.416;5.506;2023-01-01T05:46:09;11.45;;;2.10;;
70247;SDS011;57641;51.416;5.506;2023-01-01T05:48:37;2.83;;;1.50;;
70247;SDS011;57641;51.416;5.506;2023-01-01T05:51:04;6.80;;;2.08;;
70247;SDS011;57641;51.416;5.506;2023-01-01T05:53:31;7.13;;;1.85;;
70247;SDS011;57641;51.416;5.506;2023-01-01T05:55:57;5.03;;;1.95;;
70247;SDS011;57641;51.416;5.506;2023-01-01T05:58:24;9.02;;;2.20;;
70247;SDS011;57641;51.416;5.506;2023-01-01T06:00:50;7.50;;;2.15;;
70247;SDS011;57641;51.416;5.506;2023-01-01T06:03:15;6.00;;;1.83;;
70247;SDS011;57641;51.416;5.506;2023-01-01T06:05:41;3.22;;;1.50;;
70247;SDS011;57641;51.416;5.506;2023-01-01T06:08:06;6.70;;;1.58;;
70247;SDS011;57641;51.416;5.506;2023-01-01T06:10:32;4.00;;;1.40;;
70247;SDS011;57641;51.416;5.506;2023-01-01T06:12:57;4.88;;;1.55;;
70247;SDS011;57641;51.416;5.506;2023-01-01T06:15:26;6.57;;;1.60;;
70247;SDS011;57641;51.416;5.506;2023-01-01T06:17:52;5.60;;;1.60;;
70247;SDS011;57641;51.416;5.506;2023-01-01T06:20:17;4.00;;;1.70;;
70247;SDS011;57641;51.416;5.506;2023-01-01T06:22:46;3.53;;;1.50;;
70247;SDS011;57641;51.416;5.506;2023-01-01T06:25:11;4.35;;;1.90;;
70247;SDS011;57641;51.416;5.506;2023-01-01T06:27:37;5.38;;;1.65;;
70247;SDS011;57641;51.416;5.506;2023-01-01T06:30:03;4.22;;;1.52;;
70247;SDS011;57641;51.416;5.506;2023-01-01T06:32:30;4.72;;;1.98;;
70247;SDS011;57641;51.416;5.506;2023-01-01T06:34:56;8.57;;;1.70;;
70247;SDS011;57641;51.416;5.506;2023-01-01T06:37:22;5.22;;;1.63;;
70247;SDS011;57641;51.416;5.506;2023-01-01T06:39:47;3.97;;;1.65;;
70247;SDS011;57641;51.416;5.506;2023-01-01T06:42:13;4.00;;;1.90;;
70247;SDS011;57641;51.416;5.506;2023-01-01T06:44:38;5.63;;;1.70;;
70247;SDS011;57641;51.416;5.506;2023-01-01T06:47:04;3.78;;;1.98;;
70247;SDS011;57641;51.416;5.506;2023-01-01T06:49:29;5.03;;;1.67;;
70247;SDS011;57641;51.416;5.506;2023-01-01T06:51:55;4.95;;;1.80;;
70247;SDS011;57641;51.416;5.506;2023-01-01T06:54:20;6.20;;;1.63;;
70247;SDS011;57641;51.416;5.506;2023-01-01T06:56:46;4.43;;;1.83;;
70247;SDS011;57641;51.416;5.506;2023-01-01T06:59:11;10.18;;;2.00;;
70247;SDS011;57641;51.416;5.506;2023-01-01T07:01:37;8.80;;;2.17;;
70247;SDS011;57641;51.416;5.506;2023-01-01T07:04:07;7.18;;;1.80;;
70247;SDS011;57641;51.416;5.506;2023-01-01T07:06:36;8.13;;;1.90;;
70247;SDS011;57641;51.416;5.506;2023-01-01T07:09:02;8.52;;;2.53;;
70247;SDS011;57641;51.416;5.506;2023-01-01T07:11:29;6.20;;;2.10;;
70247;SDS011;57641;51.416;5.506;2023-01-01T07:13:54;6.18;;;1.92;;
70247;SDS011;57641;51.416;5.506;2023-01-01T07:16:21;6.93;;;2.28;;
70247;SDS011;57641;51.416;5.506;2023-01-01T07:18:47;4.95;;;1.92;;
70247;SDS011;57641;51.416;5.506;2023-01-01T07:21:22;7.55;;;2.30;;
70247;SDS011;57641;51.416;5.506;2023-01-01T07:23:56;5.78;;;2.20;;
70247;SDS011;57641;51.416;5.506;2023-01-01T07:26:25;9.50;;;2.38;;
70247;SDS011;57641;51.416;5.506;2023-01-01T07:28:52;5.10;;;2.33;;
70247;SDS011;57641;51.416;5.506;2023-01-01T07:31:18;6.47;;;2.40;;
70247;SDS011;57641;51.416;5.506;2023-01-01T07:33:44;7.20;;;2.13;;
70247;SDS011;57641;51.416;5.506;2023-01-01T07:36:09;10.23;;;2.80;;
70247;SDS011;57641;51.416;5.506;2023-01-01T07:38:35;3.95;;;1.80;;
70247;SDS011;57641;51.416;5.506;2023-01-01T07:41:00;6.65;;;2.47;;
70247;SDS011;57641;51.416;5.506;2023-01-01T07:43:26;5.85;;;2.42;;
70247;SDS011;57641;51.416;5.506;2023-01-01T07:45:51;6.65;;;1.95;;
70247;SDS011;57641;51.416;5.506;2023-01-01T07:48:17;9.07;;;2.00;;
70247;SDS011;57641;51.416;5.506;2023-01-01T07:50:42;4.13;;;2.00;;
70247;SDS011;57641;51.416;5.506;2023-01-01T07:53:08;6.80;;;1.67;;
70247;SDS011;57641;51.416;5.506;2023-01-01T07:55:33;6.70;;;1.77;;
70247;SDS011;57641;51.416;5.506;2023-01-01T07:57:59;9.20;;;2.40;;
70247;SDS011;57641;51.416;5.506;2023-01-01T08:00:25;7.40;;;1.70;;
70247;SDS011;57641;51.416;5.506;2023-01-01T08:02:50;5.78;;;2.10;;
70247;SDS011;57641;51.416;5.506;2023-01-01T08:05:16;8.68;;;2.42;;
70247;SDS011;57641;51.416;5.506;2023-01-01T08:07:45;6.53;;;2.40;;
70247;SDS011;57641;51.416;5.506;2023-01-01T08:10:12;7.45;;;2.17;;
70247;SDS011;57641;51.416;5.506;2023-01-01T08:12:38;7.82;;;2.28;;
70247;SDS011;57641;51.416;5.506;2023-01-01T08:15:04;5.38;;;2.00;;
70247;SDS011;57641;51.416;5.506;2023-01-01T08:17:31;8.05;;;2.22;;
70247;SDS011;57641;51.416;5.506;2023-01-01T08:19:56;5.20;;;1.65;;
70247;SDS011;57641;51.416;5.506;2023-01-01T08:22:21;4.15;;;2.00;;
70247;SDS011;57641;51.416;5.506;2023-01-01T08:24:47;5.72;;;1.98;;
70247;SDS011;57641;51.416;5.506;2023-01-01T08:27:13;8.07;;;2.25;;
70247;SDS011;57641;51.416;5.506;2023-01-01T08:29:39;5.82;;;1.85;;
70247;SDS011;57641;51.416;5.506;2023-01-01T08:32:05;4.30;;;1.85;;
70247;SDS011;57641;51.416;5.506;2023-01-01T08:34:30;5.10;;;1.65;;
70247;SDS011;57641;51.416;5.506;2023-01-01T08:36:55;5.80;;;1.80;;
70247;SDS011;57641;51.416;5.506;2023-01-01T08:39:21;7.15;;;1.70;;
70247;SDS011;57641;51.416;5.506;2023-01-01T08:41:46;7.47;;;2.60;;
70247;SDS011;57641;51.416;5.506;2023-01-01T08:44:12;6.35;;;1.83;;
70247;SDS011;57641;51.416;5.506;2023-01-01T08:46:37;6.85;;;1.90;;
70247;SDS011;57641;51.416;5.506;2023-01-01T08:49:03;5.05;;;1.90;;
70247;SDS011;57641;51.416;5.506;2023-01-01T08:51:28;6.85;;;2.10;;
70247;SDS011;57641;51.416;5.506;2023-01-01T08:53:53;7.93;;;2.47;;
70247;SDS011;57641;51.416;5.506;2023-01-01T08:56:19;4.78;;;2.10;;
70247;SDS011;57641;51.416;5.506;2023-01-01T08:58:44;6.18;;;2.05;;
70247;SDS011;57641;51.416;5.506;2023-01-01T09:01:10;6.93;;;2.17;;
70247;SDS011;57641;51.416;5.506;2023-01-01T09:03:35;6.03;;;1.88;;
70247;SDS011;57641;51.416;5.506;2023-01-01T09:06:01;4.72;;;1.92;;
70247;SDS011;57641;51.416;5.506;2023-01-01T09:08:27;5.57;;;2.08;;
70247;SDS011;57641;51.416;5.506;2023-01-01T09:10:56;5.35;;;2.03;;
70247;SDS011;57641;51.416;5.506;2023-01-01T09:13:23;5.88;;;1.98;;
70247;SDS011;57641;51.416;5.506;2023-01-01T09:15:48;6.90;;;2.70;;
70247;SDS011;57641;51.416;5.506;2023-01-01T09:18:14;6.00;;;2.13;;
70247;SDS011;57641;51.416;5.506;2023-01-01T09:20:39;5.55;;;2.53;;
70247;SDS011;57641;51.416;5.506;2023-01-01T09:23:05;6.22;;;2.05;;
70247;SDS011;57641;51.416;5.506;2023-01-01T09:25:32;5.25;;;2.75;;
70247;SDS011;57641;51.416;5.506;2023-01-01T09:27:59;8.15;;;2.90;;
70247;SDS011;57641;51.416;5.506;2023-01-01T09:30:26;4.85;;;2.70;;
70247;SDS011;57641;51.416;5.506;2023-01-01T09:32:52;8.65;;;2.90;;
70247;SDS011;57641;51.416;5.506;2023-01-01T09:35:17;8.02;;;3.20;;
70247;SDS011;57641;51.416;5.506;2023-01-01T09:37:43;8.82;;;2.97;;
70247;SDS011;57641;51.416;5.506;2023-01-01T09:43:17;6.13;;;3.30;;
70247;SDS011;57641;51.416;5.506;2023-01-01T09:46:05;6.90;;;2.92;;
70247;SDS011;57641;51.416;5.506;2023-01-01T09:48:32;6.60;;;2.50;;
70247;SDS011;57641;51.416;5.506;2023-01-01T09:51:01;8.65;;;3.08;;
70247;SDS011;57641;51.416;5.506;2023-01-01T09:56:26;10.70;;;2.42;;
70247;SDS011;57641;51.416;5.506;2023-01-01T09:58:54;7.95;;;3.30;;
70247;SDS011;57641;51.416;5.506;2023-01-01T10:12:43;9.60;;;2.58;;
70247;SDS011;57641;51.416;5.506;2023-01-01T10:15:22;5.70;;;2.22;;
70247;SDS011;57641;51.416;5.506;2023-01-01T10:17:54;6.43;;;2.40;;
70247;SDS011;57641;51.416;5.506;2023-01-01T10:20:27;4.80;;;1.98;;
70247;SDS011;57641;51.416;5.506;2023-01-01T10:23:06;8.48;;;2.70;;
70247;SDS011;57641;51.416;5.506;2023-01-01T10:25:42;4.60;;;2.10;;
70247;SDS011;57641;51.416;5.506;2023-01-01T10:30:40;5.95;;;2.70;;
70247;SDS011;57641;51.416;5.506;2023-01-01T10:33:10;11.23;;;2.80;;
70247;SDS011;57641;51.416;5.506;2023-01-01T10:35:41;7.20;;;2.33;;
70247;SDS011;57641;51.416;5.506;2023-01-01T10:38:14;5.32;;;2.20;;
70247;SDS011;57641;51.416;5.506;2023-01-01T10:43:12;9.43;;;2.80;;
70247;SDS011;57641;51.416;5.506;2023-01-01T10:45:42;8.85;;;2.40;;
70247;SDS011;57641;51.416;5.506;2023-01-01T10:50:39;10.07;;;2.63;;
70247;SDS011;57641;51.416;5.506;2023-01-01T10:53:17;11.82;;;2.92;;
70247;SDS011;57641;51.416;5.506;2023-01-01T10:55:49;8.27;;;2.42;;
70247;SDS011;57641;51.416;5.506;2023-01-01T11:01:18;8.77;;;2.33;;
70247;SDS011;57641;51.416;5.506;2023-01-01T11:09:01;6.18;;;2.40;;
70247;SDS011;57641;51.416;5.506;2023-01-01T11:11:43;7.30;;;2.45;;
70247;SDS011;57641;51.416;5.506;2023-01-01T11:16:45;6.75;;;2.45;;
70247;SDS011;57641;51.416;5.506;2023-01-01T11:19:16;7.82;;;2.50;;
70247;SDS011;57641;51.416;5.506;2023-01-01T11:21:48;5.75;;;2.17;;
70247;SDS011;57641;51.416;5.506;2023-01-01T11:24:20;6.60;;;1.92;;
70247;SDS011;57641;51.416;5.506;2023-01-01T11:26:49;9.60;;;2.17;;
70247;SDS011;57641;51.416;5.506;2023-01-01T11:29:17;7.35;;;2.17;;
70247;SDS011;57641;51.416;5.506;2023-01-01T11:31:47;5.85;;;1.95;;
70247;SDS011;57641;51.416;5.506;2023-01-01T11:37:06;7.10;;;1.85;;
70247;SDS011;57641;51.416;5.506;2023-01-01T11:39:33;5.25;;;1.58;;
70247;SDS011;57641;51.416;5.506;2023-01-01T11:42:01;5.55;;;1.75;;
70247;SDS011;57641;51.416;5.506;2023-01-01T11:47:00;6.82;;;1.80;;
70247;SDS011;57641;51.416;5.506;2023-01-01T11:49:27;8.85;;;2.25;;
70247;SDS011;57641;51.416;5.506;2023-01-01T11:51:54;10.45;;;2.10;;
70247;SDS011;57641;51.416;5.506;2023-01-01T11:57:06;10.43;;;2.00;;
70247;SDS011;57641;51.416;5.506;2023-01-01T11:59:41;4.72;;;1.88;;
70247;SDS011;57641;51.416;5.506;2023-01-01T12:02:12;6.72;;;1.70;;
70247;SDS011;57641;51.416;5.506;2023-01-01T12:04:43;8.20;;;2.20;;
70247;SDS011;57641;51.416;5.506;2023-01-01T12:07:23;8.63;;;1.67;;
70247;SDS011;57641;51.416;5.506;2023-01-01T12:09:56;8.98;;;2.17;;
70247;SDS011;57641;51.416;5.506;2023-01-01T12:12:38;4.13;;;1.30;;
70247;SDS011;57641;51.416;5.506;2023-01-01T12:20:47;10.57;;;1.80;;
70247;SDS011;57641;51.416;5.506;2023-01-01T12:23:18;9.93;;;2.10;;
70247;SDS011;57641;51.416;5.506;2023-01-01T12:25:45;8.30;;;1.80;;
70247;SDS011;57641;51.416;5.506;2023-01-01T12:34:23;7.82;;;1.70;;
70247;SDS011;57641;51.416;5.506;2023-01-01T12:37:01;4.78;;;1.48;;
70247;SDS011;57641;51.416;5.506;2023-01-01T12:45:11;7.15;;;2.00;;
70247;SDS011;57641;51.416;5.506;2023-01-01T12:58:31;7.32;;;1.75;;
70247;SDS011;57641;51.416;5.506;2023-01-01T13:01:11;8.20;;;1.77;;
70247;SDS011;57641;51.416;5.506;2023-01-01T13:03:51;5.60;;;1.60;;
70247;SDS011;57641;51.416;5.506;2023-01-01T13:11:35;7.93;;;1.70;;
70247;SDS011;57641;51.416;5.506;2023-01-01T13:14:02;6.63;;;2.03;;
70247;SDS011;57641;51.416;5.506;2023-01-01T13:16:32;6.82;;;1.80;;
70247;SDS011;57641;51.416;5.506;2023-01-01T13:19:05;7.15;;;1.98;;
70247;SDS011;57641;51.416;5.506;2023-01-01T13:22:26;8.75;;;2.00;;
70247;SDS011;57641;51.416;5.506;2023-01-01T13:33:25;9.10;;;2.25;;
70247;SDS011;57641;51.416;5.506;2023-01-01T13:51:50;10.13;;;2.40;;
70247;SDS011;57641;51.416;5.506;2023-01-01T13:57:25;7.97;;;2.00;;
70247;SDS011;57641;51.416;5.506;2023-01-01T14:00:17;8.68;;;2.03;;
70247;SDS011;57641;51.416;5.506;2023-01-01T14:03:10;7.32;;;2.17;;
70247;SDS011;57641;51.416;5.506;2023-01-01T14:08:04;5.63;;;1.60;;
70247;SDS011;57641;51.416;5.506;2023-01-01T14:10:30;9.32;;;2.20;;
70247;SDS011;57641;51.416;5.506;2023-01-01T14:15:30;6.82;;;2.00;;
70247;SDS011;57641;51.416;5.506;2023-01-01T14:17:58;8.10;;;2.42;;
70247;SDS011;57641;51.416;5.506;2023-01-01T14:20:33;5.05;;;1.88;;
70247;SDS011;57641;51.416;5.506;2023-01-01T14:23:28;9.93;;;1.98;;
70247;SDS011;57641;51.416;5.506;2023-01-01T14:26:11;7.65;;;2.30;;
70247;SDS011;57641;51.416;5.506;2023-01-01T14:28:39;6.13;;;2.25;;
70247;SDS011;57641;51.416;5.506;2023-01-01T14:31:17;6.95;;;2.00;;
70247;SDS011;57641;51.416;5.506;2023-01-01T14:33:45;9.18;;;2.50;;
70247;SDS011;57641;51.416;5.506;2023-01-01T14:36:13;5.28;;;2.40;;
70247;SDS011;57641;51.416;5.506;2023-01-01T14:38:49;10.73;;;3.35;;
70247;SDS011;57641;51.416;5.506;2023-01-01T14:41:18;5.88;;;2.25;;
70247;SDS011;57641;51.416;5.506;2023-01-01T14:43:47;6.38;;;2.83;;
70247;SDS011;57641;51.416;5.506;2023-01-01T14:46:18;5.35;;;2.30;;
70247;SDS011;57641;51.416;5.506;2023-01-01T14:48:47;8.15;;;2.42;;
70247;SDS011;57641;51.416;5.506;2023-01-01T14:51:19;8.10;;;2.42;;
70247;SDS011;57641;51.416;5.506;2023-01-01T14:53:47;8.20;;;3.03;;
70247;SDS011;57641;51.416;5.506;2023-01-01T14:56:28;8.63;;;2.75;;
70247;SDS011;57641;51.416;5.506;2023-01-01T14:58:54;5.63;;;2.28;;
70247;SDS011;57641;51.416;5.506;2023-01-01T15:01:36;9.55;;;2.50;;
70247;SDS011;57641;51.416;5.506;2023-01-01T15:04:05;9.32;;;2.80;;
70247;SDS011;57641;51.416;5.506;2023-01-01T15:06:43;7.22;;;2.20;;
70247;SDS011;57641;51.416;5.506;2023-01-01T15:09:14;8.25;;;2.30;;
70247;SDS011;57641;51.416;5.506;2023-01-01T15:11:40;6.75;;;2.72;;
70247;SDS011;57641;51.416;5.506;2023-01-01T15:14:26;9.48;;;2.28;;
70247;SDS011;57641;51.416;5.506;2023-01-01T15:17:00;9.95;;;2.40;;
70247;SDS011;57641;51.416;5.506;2023-01-01T15:19:25;4.88;;;2.30;;
70247;SDS011;57641;51.416;5.506;2023-01-01T15:21:51;7.45;;;2.60;;
70247;SDS011;57641;51.416;5.506;2023-01-01T15:24:17;8.63;;;2.03;;
70247;SDS011;57641;51.416;5.506;2023-01-01T15:29:29;5.10;;;2.30;;
70247;SDS011;57641;51.416;5.506;2023-01-01T15:31:57;5.82;;;1.80;;
70247;SDS011;57641;51.416;5.506;2023-01-01T15:34:29;7.57;;;2.30;;
70247;SDS011;57641;51.416;5.506;2023-01-01T15:37:03;9.32;;;2.80;;
70247;SDS011;57641;51.416;5.506;2023-01-01T15:39:50;8.23;;;2.78;;
70247;SDS011;57641;51.416;5.506;2023-01-01T15:42:31;9.52;;;2.88;;
70247;SDS011;57641;51.416;5.506;2023-01-01T15:48:17;5.63;;;2.42;;
70247;SDS011;57641;51.416;5.506;2023-01-01T15:53:24;9.85;;;2.35;;
70247;SDS011;57641;51.416;5.506;2023-01-01T15:58:22;6.53;;;2.63;;
70247;SDS011;57641;51.416;5.506;2023-01-01T16:00:57;6.40;;;2.40;;
70247;SDS011;57641;51.416;5.506;2023-01-01T16:03:26;7.97;;;2.63;;
70247;SDS011;57641;51.416;5.506;2023-01-01T16:05:54;7.53;;;2.72;;
70247;SDS011;57641;51.416;5.506;2023-01-01T16:08:21;8.60;;;2.20;;
70247;SDS011;57641;51.416;5.506;2023-01-01T16:10:47;9.55;;;2.78;;
70247;SDS011;57641;51.416;5.506;2023-01-01T16:13:13;8.38;;;2.40;;
70247;SDS011;57641;51.416;5.506;2023-01-01T16:18:18;5.22;;;2.13;;
70247;SDS011;57641;51.416;5.506;2023-01-01T16:20:44;5.90;;;2.28;;
70247;SDS011;57641;51.416;5.506;2023-01-01T16:23:11;6.90;;;2.13;;
70247;SDS011;57641;51.416;5.506;2023-01-01T16:25:37;9.02;;;2.40;;
70247;SDS011;57641;51.416;5.506;2023-01-01T16:28:03;6.70;;;2.55;;
70247;SDS011;57641;51.416;5.506;2023-01-01T16:30:30;9.23;;;2.40;;
70247;SDS011;57641;51.416;5.506;2023-01-01T16:32:57;7.97;;;2.50;;
70247;SDS011;57641;51.416;5.506;2023-01-01T16:35:22;11.30;;;2.72;;
70247;SDS011;57641;51.416;5.506;2023-01-01T16:37:48;9.25;;;2.03;;
70247;SDS011;57641;51.416;5.506;2023-01-01T16:40:13;8.48;;;2.30;;
70247;SDS011;57641;51.416;5.506;2023-01-01T16:42:39;5.95;;;2.10;;
70247;SDS011;57641;51.416;5.506;2023-01-01T16:45:05;6.03;;;1.92;;
70247;SDS011;57641;51.416;5.506;2023-01-01T16:47:31;9.52;;;2.10;;
70247;SDS011;57641;51.416;5.506;2023-01-01T16:49:56;5.75;;;2.25;;
70247;SDS011;57641;51.416;5.506;2023-01-01T16:52:22;5.38;;;2.28;;
70247;SDS011;57641;51.416;5.506;2023-01-01T16:54:47;5.13;;;1.60;;
70247;SDS011;57641;51.416;5.506;2023-01-01T16:57:12;7.40;;;2.35;;
70247;SDS011;57641;51.416;5.506;2023-01-01T16:59:38;6.03;;;1.83;;
70247;SDS011;57641;51.416;5.506;2023-01-01T17:02:04;4.28;;;1.80;;
70247;SDS011;57641;51.416;5.506;2023-01-01T17:04:30;5.53;;;1.88;;
70247;SDS011;57641;51.416;5.506;2023-01-01T17:06:55;7.68;;;2.53;;
70247;SDS011;57641;51.416;5.506;2023-01-01T17:09:21;5.30;;;2.35;;
70247;SDS011;57641;51.416;5.506;2023-01-01T17:11:47;5.38;;;1.80;;
70247;SDS011;57641;51.416;5.506;2023-01-01T17:14:12;5.05;;;1.77;;
70247;SDS011;57641;51.416;5.506;2023-01-01T17:16:38;4.57;;;1.73;;
70247;SDS011;57641;51.416;5.506;2023-01-01T17:19:03;6.55;;;1.70;;
70247;SDS011;57641;51.416;5.506;2023-01-01T17:21:29;6.10;;;1.73;;
70247;SDS011;57641;51.416;5.506;2023-01-01T17:23:54;5.57;;;1.73;;
70247;SDS011;57641;51.416;5.506;2023-01-01T17:26:21;7.80;;;2.00;;
70247;SDS011;57641;51.416;5.506;2023-01-01T17:28:49;6.22;;;2.22;;
70247;SDS011;57641;51.416;5.506;2023-01-01T17:31:16;6.43;;;1.75;;
70247;SDS011;57641;51.416;5.506;2023-01-01T17:33:48;5.93;;;1.65;;
70247;SDS011;57641;51.416;5.506;2023-01-01T17:36:15;5.43;;;1.92;;
70247;SDS011;57641;51.416;5.506;2023-01-01T17:38:42;5.82;;;1.90;;
70247;SDS011;57641;51.416;5.506;2023-01-01T17:41:12;4.47;;;1.58;;
70247;SDS011;57641;51.416;5.506;2023-01-01T17:43:40;4.35;;;1.50;;